sensor_id;sensor_type;location;lat;lon;timestamp;P1;durP1;ratioP1;P2;durP2;ratioP2
65737;SDS011;52478;51.844;6.582;2023-06-26T00:00:03;10.30;;;6.97;;
65737;SDS011;52478;51.844;6.582;2023-06-26T00:02:31;10.48;;;7.65;;
65737;SDS011;52478;51.844;6.582;2023-06-26T00:04:58;10.10;;;7.82;;
65737;SDS011;52478;51.844;6.582;2023-06-26T00:07:27;9.82;;;7.70;;
65737;SDS011;52478;51.844;6.582;2023-06-26T00:09:54;10.02;;;7.95;;
65737;SDS011;52478;51.844;6.582;2023-06-26T00:12:20;10.40;;;7.13;;
65737;SDS011;52478;51.844;6.582;2023-06-26T00:14:46;10.73;;;7.22;;
65737;SDS011;52478;51.844;6.582;2023-06-26T00:17:14;9.48;;;6.50;;
65737;SDS011;52478;51.844;6.582;2023-06-26T00:19:41;10.55;;;7.03;;
65737;SDS011;52478;51.844;6.582;2023-06-26T00:22:07;9.93;;;7.10;;
65737;SDS011;52478;51.844;6.582;2023-06-26T00:24:34;9.38;;;7.03;;
65737;SDS011;52478;51.844;6.582;2023-06-26T00:27:00;9.77;;;6.78;;
65737;SDS011;52478;51.844;6.582;2023-06-26T00:29:27;9.68;;;7.07;;
65737;SDS011;52478;51.844;6.582;2023-06-26T00:31:53;10.77;;;7.25;;
65737;SDS011;52478;51.844;6.582;2023-06-26T00:34:21;10.13;;;7.13;;
65737;SDS011;52478;51.844;6.582;2023-06-26T00:36:48;10.32;;;7.32;;
65737;SDS011;52478;51.844;6.582;2023-06-26T00:39:14;9.50;;;6.85;;
65737;SDS011;52478;51.844;6.582;2023-06-26T00:41:41;10.68;;;7.18;;
65737;SDS011;52478;51.844;6.582;2023-06-26T00:44:08;11.57;;;7.50;;
65737;SDS011;52478;51.844;6.582;2023-06-26T00:46:34;11.70;;;8.23;;
65737;SDS011;52478;51.844;6.582;2023-06-26T00:49:01;10.13;;;7.32;;
65737;SDS011;52478;51.844;6.582;2023-06-26T00:51:30;10.43;;;7.20;;
65737;SDS011;52478;51.844;6.582;2023-06-26T00:53:57;9.55;;;6.82;;
65737;SDS011;52478;51.844;6.582;2023-06-26T00:56:24;10.00;;;7.15;;
65737;SDS011;52478;51.844;6.582;2023-06-26T00:58:50;11.35;;;8.00;;
65737;SDS011;52478;51.844;6.582;2023-06-26T01:01:17;11.05;;;7.38;;
65737;SDS011;52478;51.844;6.582;2023-06-26T01:03:47;10.43;;;7.20;;
65737;SDS011;52478;51.844;6.582;2023-06-26T01:06:17;11.40;;;7.25;;
65737;SDS011;52478;51.844;6.582;2023-06-26T01:11:11;11.10;;;7.10;;
65737;SDS011;52478;51.844;6.582;2023-06-26T01:13:38;11.85;;;8.60;;
65737;SDS011;52478;51.844;6.582;2023-06-26T01:16:07;11.43;;;7.45;;
65737;SDS011;52478;51.844;6.582;2023-06-26T01:18:35;10.95;;;7.32;;
65737;SDS011;52478;51.844;6.582;2023-06-26T01:21:07;11.70;;;7.22;;
65737;SDS011;52478;51.844;6.582;2023-06-26T01:23:37;10.25;;;7.70;;
65737;SDS011;52478;51.844;6.582;2023-06-26T01:26:17;11.00;;;7.55;;
65737;SDS011;52478;51.844;6.582;2023-06-26T01:28:46;10.25;;;7.50;;
65737;SDS011;52478;51.844;6.582;2023-06-26T01:31:14;12.60;;;7.82;;
65737;SDS011;52478;51.844;6.582;2023-06-26T01:33:41;12.15;;;7.38;;
65737;SDS011;52478;51.844;6.582;2023-06-26T01:36:09;11.43;;;7.18;;
65737;SDS011;52478;51.844;6.582;2023-06-26T01:38:36;11.73;;;7.53;;
65737;SDS011;52478;51.844;6.582;2023-06-26T01:41:03;10.10;;;7.53;;
65737;SDS011;52478;51.844;6.582;2023-06-26T01:43:35;10.35;;;7.47;;
65737;SDS011;52478;51.844;6.582;2023-06-26T01:46:09;11.18;;;7.93;;
65737;SDS011;52478;51.844;6.582;2023-06-26T01:48:44;11.93;;;7.82;;
65737;SDS011;52478;51.844;6.582;2023-06-26T01:51:15;11.70;;;8.65;;
65737;SDS011;52478;51.844;6.582;2023-06-26T01:53:45;11.60;;;8.93;;
65737;SDS011;52478;51.844;6.582;2023-06-26T01:56:15;11.05;;;7.38;;
65737;SDS011;52478;51.844;6.582;2023-06-26T01:58:45;12.32;;;8.25;;
65737;SDS011;52478;51.844;6.582;2023-06-26T02:01:13;11.15;;;7.63;;
65737;SDS011;52478;51.844;6.582;2023-06-26T02:03:39;11.85;;;8.30;;
65737;SDS011;52478;51.844;6.582;2023-06-26T02:06:06;10.82;;;8.27;;
65737;SDS011;52478;51.844;6.582;2023-06-26T02:08:32;12.13;;;8.27;;
65737;SDS011;52478;51.844;6.582;2023-06-26T02:10:59;12.27;;;7.80;;
65737;SDS011;52478;51.844;6.582;2023-06-26T02:13:25;11.75;;;9.13;;
65737;SDS011;52478;51.844;6.582;2023-06-26T02:15:53;10.75;;;7.88;;
65737;SDS011;52478;51.844;6.582;2023-06-26T02:18:19;12.73;;;8.18;;
65737;SDS011;52478;51.844;6.582;2023-06-26T02:20:47;11.00;;;7.65;;
65737;SDS011;52478;51.844;6.582;2023-06-26T02:23:13;11.55;;;7.93;;
65737;SDS011;52478;51.844;6.582;2023-06-26T02:25:40;12.20;;;8.95;;
65737;SDS011;52478;51.844;6.582;2023-06-26T02:28:06;11.88;;;7.93;;
65737;SDS011;52478;51.844;6.582;2023-06-26T02:30:33;11.68;;;8.65;;
65737;SDS011;52478;51.844;6.582;2023-06-26T02:33:01;11.30;;;7.85;;
65737;SDS011;52478;51.844;6.582;2023-06-26T02:35:27;10.48;;;7.55;;
65737;SDS011;52478;51.844;6.582;2023-06-26T02:37:54;12.52;;;8.65;;
65737;SDS011;52478;51.844;6.582;2023-06-26T02:40:20;10.80;;;7.45;;
65737;SDS011;52478;51.844;6.582;2023-06-26T02:42:46;12.57;;;8.18;;
65737;SDS011;52478;51.844;6.582;2023-06-26T02:45:13;12.07;;;8.05;;
65737;SDS011;52478;51.844;6.582;2023-06-26T02:47:39;11.80;;;8.02;;
65737;SDS011;52478;51.844;6.582;2023-06-26T02:50:08;11.63;;;8.45;;
65737;SDS011;52478;51.844;6.582;2023-06-26T02:52:35;11.70;;;8.35;;
65737;SDS011;52478;51.844;6.582;2023-06-26T02:55:01;12.32;;;8.73;;
65737;SDS011;52478;51.844;6.582;2023-06-26T02:57:28;12.43;;;7.68;;
65737;SDS011;52478;51.844;6.582;2023-06-26T02:59:54;10.75;;;7.78;;
65737;SDS011;52478;51.844;6.582;2023-06-26T03:02:21;12.13;;;8.15;;
65737;SDS011;52478;51.844;6.582;2023-06-26T03:04:47;10.95;;;8.45;;
65737;SDS011;52478;51.844;6.582;2023-06-26T03:07:16;11.57;;;8.13;;
65737;SDS011;52478;51.844;6.582;2023-06-26T03:09:42;12.27;;;9.57;;
65737;SDS011;52478;51.844;6.582;2023-06-26T03:12:09;11.60;;;7.85;;
65737;SDS011;52478;51.844;6.582;2023-06-26T03:14:35;11.30;;;8.07;;
65737;SDS011;52478;51.844;6.582;2023-06-26T03:17:02;11.02;;;7.80;;
65737;SDS011;52478;51.844;6.582;2023-06-26T03:19:29;12.18;;;8.43;;
65737;SDS011;52478;51.844;6.582;2023-06-26T03:21:55;11.73;;;8.60;;
65737;SDS011;52478;51.844;6.582;2023-06-26T03:24:23;10.90;;;7.93;;
65737;SDS011;52478;51.844;6.582;2023-06-26T03:26:49;13.07;;;8.02;;
65737;SDS011;52478;51.844;6.582;2023-06-26T03:29:16;10.23;;;8.05;;
65737;SDS011;52478;51.844;6.582;2023-06-26T03:31:42;12.27;;;7.78;;
65737;SDS011;52478;51.844;6.582;2023-06-26T03:34:09;10.02;;;7.25;;
65737;SDS011;52478;51.844;6.582;2023-06-26T03:36:35;13.02;;;8.68;;
65737;SDS011;52478;51.844;6.582;2023-06-26T03:39:02;12.27;;;8.35;;
65737;SDS011;52478;51.844;6.582;2023-06-26T03:41:30;13.70;;;7.75;;
65737;SDS011;52478;51.844;6.582;2023-06-26T03:43:57;11.93;;;8.45;;
65737;SDS011;52478;51.844;6.582;2023-06-26T03:46:25;11.20;;;8.15;;
65737;SDS011;52478;51.844;6.582;2023-06-26T03:48:51;11.82;;;8.38;;
65737;SDS011;52478;51.844;6.582;2023-06-26T03:51:18;10.25;;;7.05;;
65737;SDS011;52478;51.844;6.582;2023-06-26T03:53:44;10.80;;;6.88;;
65737;SDS011;52478;51.844;6.582;2023-06-26T03:56:11;11.43;;;7.18;;
65737;SDS011;52478;51.844;6.582;2023-06-26T03:58:40;9.63;;;6.95;;
65737;SDS011;52478;51.844;6.582;2023-06-26T04:01:06;10.75;;;7.07;;
65737;SDS011;52478;51.844;6.582;2023-06-26T04:03:33;10.25;;;7.40;;
65737;SDS011;52478;51.844;6.582;2023-06-26T04:06:00;10.73;;;7.65;;
65737;SDS011;52478;51.844;6.582;2023-06-26T04:08:26;10.68;;;6.63;;
65737;SDS011;52478;51.844;6.582;2023-06-26T04:10:52;9.88;;;6.45;;
65737;SDS011;52478;51.844;6.582;2023-06-26T04:13:22;9.93;;;6.60;;
65737;SDS011;52478;51.844;6.582;2023-06-26T04:15:50;10.70;;;6.78;;
65737;SDS011;52478;51.844;6.582;2023-06-26T04:18:16;9.25;;;6.78;;
65737;SDS011;52478;51.844;6.582;2023-06-26T04:23:31;9.52;;;6.20;;
65737;SDS011;52478;51.844;6.582;2023-06-26T04:25:58;8.82;;;6.05;;
65737;SDS011;52478;51.844;6.582;2023-06-26T04:28:24;8.57;;;5.18;;
65737;SDS011;52478;51.844;6.582;2023-06-26T04:30:52;8.63;;;5.22;;
65737;SDS011;52478;51.844;6.582;2023-06-26T04:33:19;8.43;;;5.10;;
65737;SDS011;52478;51.844;6.582;2023-06-26T04:35:46;9.45;;;5.25;;
65737;SDS011;52478;51.844;6.582;2023-06-26T04:38:13;9.07;;;4.60;;
65737;SDS011;52478;51.844;6.582;2023-06-26T04:43:07;10.18;;;4.93;;
65737;SDS011;52478;51.844;6.582;2023-06-26T04:45:33;9.00;;;4.57;;
65737;SDS011;52478;51.844;6.582;2023-06-26T04:48:01;10.50;;;4.78;;
65737;SDS011;52478;51.844;6.582;2023-06-26T04:50:28;9.88;;;4.80;;
65737;SDS011;52478;51.844;6.582;2023-06-26T04:52:55;9.15;;;4.32;;
65737;SDS011;52478;51.844;6.582;2023-06-26T04:55:23;9.88;;;5.05;;
65737;SDS011;52478;51.844;6.582;2023-06-26T04:57:50;10.55;;;4.97;;
65737;SDS011;52478;51.844;6.582;2023-06-26T05:00:16;9.45;;;4.55;;
65737;SDS011;52478;51.844;6.582;2023-06-26T05:05:11;9.88;;;4.30;;
65737;SDS011;52478;51.844;6.582;2023-06-26T05:07:41;10.65;;;5.05;;
65737;SDS011;52478;51.844;6.582;2023-06-26T05:10:08;9.82;;;4.30;;
65737;SDS011;52478;51.844;6.582;2023-06-26T05:12:34;11.10;;;4.68;;
65737;SDS011;52478;51.844;6.582;2023-06-26T05:15:01;9.95;;;4.40;;
65737;SDS011;52478;51.844;6.582;2023-06-26T05:17:28;12.50;;;4.60;;
65737;SDS011;52478;51.844;6.582;2023-06-26T05:19:54;11.02;;;4.15;;
65737;SDS011;52478;51.844;6.582;2023-06-26T05:22:22;10.75;;;4.70;;
65737;SDS011;52478;51.844;6.582;2023-06-26T05:24:49;10.32;;;4.65;;
65737;SDS011;52478;51.844;6.582;2023-06-26T05:27:17;12.68;;;5.10;;
65737;SDS011;52478;51.844;6.582;2023-06-26T05:29:47;12.50;;;5.05;;
65737;SDS011;52478;51.844;6.582;2023-06-26T05:32:14;10.13;;;4.10;;
65737;SDS011;52478;51.844;6.582;2023-06-26T05:34:42;9.52;;;3.78;;
65737;SDS011;52478;51.844;6.582;2023-06-26T05:37:10;10.18;;;4.55;;
65737;SDS011;52478;51.844;6.582;2023-06-26T05:39:42;11.60;;;4.72;;
65737;SDS011;52478;51.844;6.582;2023-06-26T05:42:10;18.02;;;5.57;;
65737;SDS011;52478;51.844;6.582;2023-06-26T05:44:37;11.82;;;4.85;;
65737;SDS011;52478;51.844;6.582;2023-06-26T05:47:04;14.18;;;5.20;;
65737;SDS011;52478;51.844;6.582;2023-06-26T05:49:31;12.88;;;4.85;;
65737;SDS011;52478;51.844;6.582;2023-06-26T05:51:58;11.88;;;4.70;;
65737;SDS011;52478;51.844;6.582;2023-06-26T05:54:25;11.52;;;5.47;;
65737;SDS011;52478;51.844;6.582;2023-06-26T05:56:53;12.30;;;5.07;;
65737;SDS011;52478;51.844;6.582;2023-06-26T05:59:24;11.23;;;4.90;;
65737;SDS011;52478;51.844;6.582;2023-06-26T06:01:52;11.80;;;4.90;;
65737;SDS011;52478;51.844;6.582;2023-06-26T06:04:19;13.88;;;4.63;;
65737;SDS011;52478;51.844;6.582;2023-06-26T06:06:46;13.18;;;5.07;;
65737;SDS011;52478;51.844;6.582;2023-06-26T06:09:12;12.07;;;4.43;;
65737;SDS011;52478;51.844;6.582;2023-06-26T06:11:39;12.10;;;4.65;;
65737;SDS011;52478;51.844;6.582;2023-06-26T06:14:06;11.57;;;4.78;;
65737;SDS011;52478;51.844;6.582;2023-06-26T06:16:33;14.68;;;5.25;;
65737;SDS011;52478;51.844;6.582;2023-06-26T06:18:59;12.07;;;4.53;;
65737;SDS011;52478;51.844;6.582;2023-06-26T06:21:28;10.48;;;4.50;;
65737;SDS011;52478;51.844;6.582;2023-06-26T06:23:55;13.50;;;5.18;;
65737;SDS011;52478;51.844;6.582;2023-06-26T06:26:21;12.40;;;4.72;;
65737;SDS011;52478;51.844;6.582;2023-06-26T06:28:47;12.57;;;4.72;;
65737;SDS011;52478;51.844;6.582;2023-06-26T06:31:15;11.15;;;4.60;;
65737;SDS011;52478;51.844;6.582;2023-06-26T06:33:42;12.50;;;4.72;;
65737;SDS011;52478;51.844;6.582;2023-06-26T06:36:08;11.80;;;4.25;;
65737;SDS011;52478;51.844;6.582;2023-06-26T06:38:35;11.32;;;4.63;;
65737;SDS011;52478;51.844;6.582;2023-06-26T06:41:01;13.48;;;4.90;;
65737;SDS011;52478;51.844;6.582;2023-06-26T06:43:28;11.38;;;4.53;;
65737;SDS011;52478;51.844;6.582;2023-06-26T06:45:54;10.82;;;4.05;;
65737;SDS011;52478;51.844;6.582;2023-06-26T06:48:22;10.15;;;3.97;;
65737;SDS011;52478;51.844;6.582;2023-06-26T06:50:49;11.05;;;4.25;;
65737;SDS011;52478;51.844;6.582;2023-06-26T06:53:15;11.30;;;4.32;;
65737;SDS011;52478;51.844;6.582;2023-06-26T06:55:41;10.35;;;4.18;;
65737;SDS011;52478;51.844;6.582;2023-06-26T06:58:08;11.18;;;4.18;;
65737;SDS011;52478;51.844;6.582;2023-06-26T07:00:34;12.45;;;4.63;;
65737;SDS011;52478;51.844;6.582;2023-06-26T07:03:01;12.25;;;5.28;;
65737;SDS011;52478;51.844;6.582;2023-06-26T07:05:30;12.45;;;4.13;;
65737;SDS011;52478;51.844;6.582;2023-06-26T07:07:56;15.48;;;5.03;;
65737;SDS011;52478;51.844;6.582;2023-06-26T07:10:23;11.68;;;4.38;;
65737;SDS011;52478;51.844;6.582;2023-06-26T07:12:49;9.68;;;3.88;;
65737;SDS011;52478;51.844;6.582;2023-06-26T07:15:16;11.93;;;4.55;;
65737;SDS011;52478;51.844;6.582;2023-06-26T07:17:42;14.10;;;3.97;;
65737;SDS011;52478;51.844;6.582;2023-06-26T07:20:09;11.45;;;4.30;;
65737;SDS011;52478;51.844;6.582;2023-06-26T07:22:42;12.57;;;4.60;;
65737;SDS011;52478;51.844;6.582;2023-06-26T07:25:09;11.73;;;4.40;;
65737;SDS011;52478;51.844;6.582;2023-06-26T07:27:36;10.57;;;3.92;;
65737;SDS011;52478;51.844;6.582;2023-06-26T07:30:03;12.93;;;3.92;;
65737;SDS011;52478;51.844;6.582;2023-06-26T07:34:56;11.00;;;4.30;;
65737;SDS011;52478;51.844;6.582;2023-06-26T07:37:23;9.90;;;3.53;;
65737;SDS011;52478;51.844;6.582;2023-06-26T07:39:51;13.43;;;3.72;;
65737;SDS011;52478;51.844;6.582;2023-06-26T07:42:17;11.07;;;4.32;;
65737;SDS011;52478;51.844;6.582;2023-06-26T07:44:44;10.57;;;3.22;;
65737;SDS011;52478;51.844;6.582;2023-06-26T07:47:11;9.75;;;3.60;;
65737;SDS011;52478;51.844;6.582;2023-06-26T07:49:37;10.52;;;3.53;;
65737;SDS011;52478;51.844;6.582;2023-06-26T07:52:04;9.95;;;3.50;;
65737;SDS011;52478;51.844;6.582;2023-06-26T07:56:59;10.02;;;3.22;;
65737;SDS011;52478;51.844;6.582;2023-06-26T07:59:27;10.27;;;3.50;;
65737;SDS011;52478;51.844;6.582;2023-06-26T08:01:55;9.25;;;3.75;;
65737;SDS011;52478;51.844;6.582;2023-06-26T08:04:24;9.73;;;3.50;;
65737;SDS011;52478;51.844;6.582;2023-06-26T08:06:52;9.85;;;3.45;;
65737;SDS011;52478;51.844;6.582;2023-06-26T08:09:20;9.20;;;3.38;;
65737;SDS011;52478;51.844;6.582;2023-06-26T08:11:49;8.77;;;3.33;;
65737;SDS011;52478;51.844;6.582;2023-06-26T08:14:17;11.57;;;3.47;;
65737;SDS011;52478;51.844;6.582;2023-06-26T08:16:44;9.90;;;3.40;;
65737;SDS011;52478;51.844;6.582;2023-06-26T08:19:11;8.48;;;3.33;;
65737;SDS011;52478;51.844;6.582;2023-06-26T08:21:39;9.98;;;2.92;;
65737;SDS011;52478;51.844;6.582;2023-06-26T08:24:05;8.38;;;2.92;;
65737;SDS011;52478;51.844;6.582;2023-06-26T08:26:32;7.95;;;3.20;;
65737;SDS011;52478;51.844;6.582;2023-06-26T08:28:58;8.20;;;3.25;;
65737;SDS011;52478;51.844;6.582;2023-06-26T08:31:26;9.80;;;3.42;;
65737;SDS011;52478;51.844;6.582;2023-06-26T08:33:53;7.70;;;3.33;;
65737;SDS011;52478;51.844;6.582;2023-06-26T08:36:19;10.32;;;3.22;;
65737;SDS011;52478;51.844;6.582;2023-06-26T08:38:46;9.98;;;3.72;;
65737;SDS011;52478;51.844;6.582;2023-06-26T08:41:12;9.80;;;3.25;;
65737;SDS011;52478;51.844;6.582;2023-06-26T08:43:39;8.65;;;3.17;;
65737;SDS011;52478;51.844;6.582;2023-06-26T08:46:07;7.78;;;3.08;;
65737;SDS011;52478;51.844;6.582;2023-06-26T08:48:35;7.97;;;3.05;;
65737;SDS011;52478;51.844;6.582;2023-06-26T08:51:05;7.47;;;3.13;;
65737;SDS011;52478;51.844;6.582;2023-06-26T08:53:37;7.75;;;3.30;;
65737;SDS011;52478;51.844;6.582;2023-06-26T08:56:09;15.18;;;3.40;;
65737;SDS011;52478;51.844;6.582;2023-06-26T08:58:37;9.65;;;3.35;;
65737;SDS011;52478;51.844;6.582;2023-06-26T09:01:04;11.73;;;3.45;;
65737;SDS011;52478;51.844;6.582;2023-06-26T09:05:59;7.50;;;3.03;;
65737;SDS011;52478;51.844;6.582;2023-06-26T09:08:25;7.93;;;3.40;;
65737;SDS011;52478;51.844;6.582;2023-06-26T09:10:52;6.75;;;3.25;;
65737;SDS011;52478;51.844;6.582;2023-06-26T09:13:19;9.60;;;3.55;;
65737;SDS011;52478;51.844;6.582;2023-06-26T09:15:46;9.27;;;3.80;;
65737;SDS011;52478;51.844;6.582;2023-06-26T09:18:13;7.78;;;3.40;;
65737;SDS011;52478;51.844;6.582;2023-06-26T09:20:45;10.05;;;3.47;;
65737;SDS011;52478;51.844;6.582;2023-06-26T09:23:13;9.07;;;3.78;;
65737;SDS011;52478;51.844;6.582;2023-06-26T09:25:40;7.82;;;3.80;;
65737;SDS011;52478;51.844;6.582;2023-06-26T09:28:07;8.63;;;4.00;;
65737;SDS011;52478;51.844;6.582;2023-06-26T09:30:34;9.75;;;3.35;;
65737;SDS011;52478;51.844;6.582;2023-06-26T09:33:12;8.05;;;3.33;;
65737;SDS011;52478;51.844;6.582;2023-06-26T09:35:39;8.38;;;3.70;;
65737;SDS011;52478;51.844;6.582;2023-06-26T09:38:06;9.75;;;3.55;;
65737;SDS011;52478;51.844;6.582;2023-06-26T09:40:34;8.88;;;3.30;;
65737;SDS011;52478;51.844;6.582;2023-06-26T09:43:03;10.68;;;3.40;;
65737;SDS011;52478;51.844;6.582;2023-06-26T09:45:30;14.23;;;4.20;;
65737;SDS011;52478;51.844;6.582;2023-06-26T09:47:59;7.65;;;3.70;;
65737;SDS011;52478;51.844;6.582;2023-06-26T09:50:26;8.27;;;3.25;;
65737;SDS011;52478;51.844;6.582;2023-06-26T09:52:52;7.95;;;3.50;;
65737;SDS011;52478;51.844;6.582;2023-06-26T09:55:19;6.88;;;3.15;;
65737;SDS011;52478;51.844;6.582;2023-06-26T09:57:48;7.97;;;3.60;;
65737;SDS011;52478;51.844;6.582;2023-06-26T10:00:16;9.27;;;3.53;;
65737;SDS011;52478;51.844;6.582;2023-06-26T10:02:43;7.90;;;3.72;;
65737;SDS011;52478;51.844;6.582;2023-06-26T10:05:10;8.65;;;4.22;;
65737;SDS011;52478;51.844;6.582;2023-06-26T10:07:37;9.30;;;3.97;;
65737;SDS011;52478;51.844;6.582;2023-06-26T10:10:05;8.13;;;3.65;;
65737;SDS011;52478;51.844;6.582;2023-06-26T10:12:34;10.88;;;3.40;;
65737;SDS011;52478;51.844;6.582;2023-06-26T10:15:02;8.07;;;3.13;;
65737;SDS011;52478;51.844;6.582;2023-06-26T10:17:30;9.15;;;3.20;;
65737;SDS011;52478;51.844;6.582;2023-06-26T10:20:01;6.15;;;2.78;;
65737;SDS011;52478;51.844;6.582;2023-06-26T10:22:32;6.60;;;2.53;;
65737;SDS011;52478;51.844;6.582;2023-06-26T10:25:06;6.20;;;2.80;;
65737;SDS011;52478;51.844;6.582;2023-06-26T10:27:33;9.07;;;3.08;;
65737;SDS011;52478;51.844;6.582;2023-06-26T10:30:06;9.88;;;2.78;;
65737;SDS011;52478;51.844;6.582;2023-06-26T10:32:35;7.22;;;2.78;;
65737;SDS011;52478;51.844;6.582;2023-06-26T10:35:05;8.85;;;2.67;;
65737;SDS011;52478;51.844;6.582;2023-06-26T10:37:42;7.32;;;2.60;;
65737;SDS011;52478;51.844;6.582;2023-06-26T10:40:10;7.43;;;2.47;;
65737;SDS011;52478;51.844;6.582;2023-06-26T10:42:38;8.68;;;2.88;;
65737;SDS011;52478;51.844;6.582;2023-06-26T10:45:14;8.15;;;2.40;;
65737;SDS011;52478;51.844;6.582;2023-06-26T10:47:42;8.38;;;2.40;;
65737;SDS011;52478;51.844;6.582;2023-06-26T10:50:19;6.93;;;2.38;;
65737;SDS011;52478;51.844;6.582;2023-06-26T10:53:06;7.95;;;2.70;;
65737;SDS011;52478;51.844;6.582;2023-06-26T10:55:34;7.75;;;2.30;;
65737;SDS011;52478;51.844;6.582;2023-06-26T11:00:29;6.35;;;2.10;;
65737;SDS011;52478;51.844;6.582;2023-06-26T11:02:56;7.05;;;2.08;;
65737;SDS011;52478;51.844;6.582;2023-06-26T11:05:25;7.38;;;2.40;;
65737;SDS011;52478;51.844;6.582;2023-06-26T11:08:05;6.70;;;2.17;;
65737;SDS011;52478;51.844;6.582;2023-06-26T11:10:48;6.32;;;2.10;;
65737;SDS011;52478;51.844;6.582;2023-06-26T11:13:17;5.20;;;1.90;;
65737;SDS011;52478;51.844;6.582;2023-06-26T11:15:45;7.53;;;1.92;;
65737;SDS011;52478;51.844;6.582;2023-06-26T11:18:12;5.32;;;1.73;;
65737;SDS011;52478;51.844;6.582;2023-06-26T11:20:39;6.68;;;1.90;;
65737;SDS011;52478;51.844;6.582;2023-06-26T11:23:06;5.38;;;1.70;;
65737;SDS011;52478;51.844;6.582;2023-06-26T11:25:34;5.70;;;1.90;;
65737;SDS011;52478;51.844;6.582;2023-06-26T11:28:01;7.32;;;2.10;;
65737;SDS011;52478;51.844;6.582;2023-06-26T11:30:28;7.38;;;1.83;;
65737;SDS011;52478;51.844;6.582;2023-06-26T11:33:03;6.13;;;1.92;;
65737;SDS011;52478;51.844;6.582;2023-06-26T11:35:30;4.88;;;1.70;;
65737;SDS011;52478;51.844;6.582;2023-06-26T11:37:57;5.60;;;1.73;;
65737;SDS011;52478;51.844;6.582;2023-06-26T11:40:25;7.32;;;2.22;;
65737;SDS011;52478;51.844;6.582;2023-06-26T11:42:55;6.78;;;1.83;;
65737;SDS011;52478;51.844;6.582;2023-06-26T11:45:22;6.32;;;1.73;;
65737;SDS011;52478;51.844;6.582;2023-06-26T11:47:48;5.70;;;1.88;;
65737;SDS011;52478;51.844;6.582;2023-06-26T11:50:16;5.72;;;1.83;;
65737;SDS011;52478;51.844;6.582;2023-06-26T11:52:43;5.22;;;1.98;;
65737;SDS011;52478;51.844;6.582;2023-06-26T11:57:36;5.28;;;1.83;;
65737;SDS011;52478;51.844;6.582;2023-06-26T12:00:12;4.15;;;1.65;;
65737;SDS011;52478;51.844;6.582;2023-06-26T12:02:40;6.03;;;1.60;;
65737;SDS011;52478;51.844;6.582;2023-06-26T12:05:07;5.68;;;1.70;;
65737;SDS011;52478;51.844;6.582;2023-06-26T12:07:36;5.03;;;1.70;;
65737;SDS011;52478;51.844;6.582;2023-06-26T12:10:04;5.53;;;2.08;;
65737;SDS011;52478;51.844;6.582;2023-06-26T12:12:32;5.72;;;1.40;;
65737;SDS011;52478;51.844;6.582;2023-06-26T12:14:59;6.32;;;1.70;;
65737;SDS011;52478;51.844;6.582;2023-06-26T12:19:52;4.70;;;1.45;;
65737;SDS011;52478;51.844;6.582;2023-06-26T12:22:19;5.90;;;1.73;;
65737;SDS011;52478;51.844;6.582;2023-06-26T12:24:47;5.30;;;1.77;;
65737;SDS011;52478;51.844;6.582;2023-06-26T12:27:14;4.82;;;1.70;;
65737;SDS011;52478;51.844;6.582;2023-06-26T12:29:45;6.72;;;1.83;;
65737;SDS011;52478;51.844;6.582;2023-06-26T12:32:16;4.90;;;1.60;;
65737;SDS011;52478;51.844;6.582;2023-06-26T12:34:46;5.00;;;1.70;;
65737;SDS011;52478;51.844;6.582;2023-06-26T12:37:14;5.32;;;1.63;;
65737;SDS011;52478;51.844;6.582;2023-06-26T12:39:49;5.65;;;1.80;;
65737;SDS011;52478;51.844;6.582;2023-06-26T12:42:17;5.57;;;1.60;;
65737;SDS011;52478;51.844;6.582;2023-06-26T12:44:45;5.25;;;1.98;;
65737;SDS011;52478;51.844;6.582;2023-06-26T12:47:13;5.47;;;1.63;;
65737;SDS011;52478;51.844;6.582;2023-06-26T12:49:40;4.38;;;1.33;;
65737;SDS011;52478;51.844;6.582;2023-06-26T12:52:08;5.18;;;1.77;;
65737;SDS011;52478;51.844;6.582;2023-06-26T12:54:36;5.90;;;1.70;;
65737;SDS011;52478;51.844;6.582;2023-06-26T12:57:05;4.22;;;1.50;;
65737;SDS011;52478;51.844;6.582;2023-06-26T12:59:32;5.65;;;1.42;;
65737;SDS011;52478;51.844;6.582;2023-06-26T13:02:00;4.78;;;1.48;;
65737;SDS011;52478;51.844;6.582;2023-06-26T13:04:27;4.55;;;1.40;;
65737;SDS011;52478;51.844;6.582;2023-06-26T13:06:54;5.97;;;1.58;;
65737;SDS011;52478;51.844;6.582;2023-06-26T13:09:21;4.70;;;1.20;;
65737;SDS011;52478;51.844;6.582;2023-06-26T13:11:48;6.65;;;1.60;;
65737;SDS011;52478;51.844;6.582;2023-06-26T13:14:16;5.22;;;1.48;;
65737;SDS011;52478;51.844;6.582;2023-06-26T13:16:43;4.55;;;1.30;;
65737;SDS011;52478;51.844;6.582;2023-06-26T13:19:09;4.55;;;1.42;;
65737;SDS011;52478;51.844;6.582;2023-06-26T13:21:36;4.82;;;1.50;;
65737;SDS011;52478;51.844;6.582;2023-06-26T13:24:03;4.90;;;1.80;;
65737;SDS011;52478;51.844;6.582;2023-06-26T13:26:30;4.32;;;1.30;;
65737;SDS011;52478;51.844;6.582;2023-06-26T13:28:57;5.22;;;1.80;;
65737;SDS011;52478;51.844;6.582;2023-06-26T13:31:26;6.03;;;1.40;;
65737;SDS011;52478;51.844;6.582;2023-06-26T13:33:52;5.45;;;1.67;;
65737;SDS011;52478;51.844;6.582;2023-06-26T13:36:19;4.88;;;1.70;;
65737;SDS011;52478;51.844;6.582;2023-06-26T13:38:46;5.00;;;1.35;;
65737;SDS011;52478;51.844;6.582;2023-06-26T13:41:14;5.25;;;1.52;;
65737;SDS011;52478;51.844;6.582;2023-06-26T13:43:41;5.13;;;1.20;;
65737;SDS011;52478;51.844;6.582;2023-06-26T13:46:07;4.95;;;1.38;;
65737;SDS011;52478;51.844;6.582;2023-06-26T13:48:35;4.63;;;1.40;;
65737;SDS011;52478;51.844;6.582;2023-06-26T13:51:02;4.75;;;1.50;;
65737;SDS011;52478;51.844;6.582;2023-06-26T13:53:28;5.00;;;1.30;;
65737;SDS011;52478;51.844;6.582;2023-06-26T13:55:55;6.05;;;1.70;;
65737;SDS011;52478;51.844;6.582;2023-06-26T13:58:21;5.10;;;1.73;;
65737;SDS011;52478;51.844;6.582;2023-06-26T14:00:51;5.57;;;1.95;;
65737;SDS011;52478;51.844;6.582;2023-06-26T14:03:18;5.03;;;1.48;;
65737;SDS011;52478;51.844;6.582;2023-06-26T14:05:46;6.22;;;1.58;;
65737;SDS011;52478;51.844;6.582;2023-06-26T14:08:12;4.72;;;1.50;;
65737;SDS011;52478;51.844;6.582;2023-06-26T14:10:39;5.93;;;1.98;;
65737;SDS011;52478;51.844;6.582;2023-06-26T14:13:05;5.35;;;1.90;;
65737;SDS011;52478;51.844;6.582;2023-06-26T14:15:34;5.80;;;1.48;;
65737;SDS011;52478;51.844;6.582;2023-06-26T14:20:27;5.03;;;1.60;;
65737;SDS011;52478;51.844;6.582;2023-06-26T14:25:22;4.47;;;1.20;;
65737;SDS011;52478;51.844;6.582;2023-06-26T14:27:48;5.15;;;1.50;;
65737;SDS011;52478;51.844;6.582;2023-06-26T14:30:15;5.63;;;1.67;;
65737;SDS011;52478;51.844;6.582;2023-06-26T14:32:41;3.85;;;1.25;;
65737;SDS011;52478;51.844;6.582;2023-06-26T14:35:08;4.70;;;1.58;;
65737;SDS011;52478;51.844;6.582;2023-06-26T14:37:35;6.03;;;1.52;;
65737;SDS011;52478;51.844;6.582;2023-06-26T14:40:06;5.03;;;1.50;;
65737;SDS011;52478;51.844;6.582;2023-06-26T14:42:33;5.30;;;1.75;;
65737;SDS011;52478;51.844;6.582;2023-06-26T14:44:59;5.80;;;1.63;;
65737;SDS011;52478;51.844;6.582;2023-06-26T14:47:26;5.22;;;1.40;;
65737;SDS011;52478;51.844;6.582;2023-06-26T14:49:52;4.47;;;1.40;;
65737;SDS011;52478;51.844;6.582;2023-06-26T14:52:19;5.00;;;1.27;;
65737;SDS011;52478;51.844;6.582;2023-06-26T14:54:45;5.70;;;1.50;;
65737;SDS011;52478;51.844;6.582;2023-06-26T14:57:13;5.25;;;1.38;;
65737;SDS011;52478;51.844;6.582;2023-06-26T14:59:39;6.20;;;1.63;;
65737;SDS011;52478;51.844;6.582;2023-06-26T15:02:06;4.78;;;1.48;;
65737;SDS011;52478;51.844;6.582;2023-06-26T15:04:32;4.32;;;1.60;;
65737;SDS011;52478;51.844;6.582;2023-06-26T15:06:59;4.63;;;1.30;;
65737;SDS011;52478;51.844;6.582;2023-06-26T15:09:25;4.30;;;1.08;;
65737;SDS011;52478;51.844;6.582;2023-06-26T15:11:52;5.70;;;1.23;;